sensor_id;sensor_type;location;lat;lon;timestamp;temperature;humidity
26035;DHT22;13809;48.632;11.576;2023-07-09T00:00:27;23.80;25.60
26035;DHT22;13809;48.632;11.576;2023-07-09T00:05:32;23.80;25.70
26035;DHT22;13809;48.632;11.576;2023-07-09T00:10:35;23.90;26.20
26035;DHT22;13809;48.632;11.576;2023-07-09T00:15:38;23.90;25.60
26035;DHT22;13809;48.632;11.576;2023-07-09T00:20:43;23.90;25.80
26035;DHT22;13809;48.632;11.576;2023-07-09T00:25:50;23.80;26.10
26035;DHT22;13809;48.632;11.576;2023-07-09T00:30:53;23.80;25.90
26035;DHT22;13809;48.632;11.576;2023-07-09T00:35:58;23.80;26.00
26035;DHT22;13809;48.632;11.576;2023-07-09T00:41:04;23.70;26.40
26035;DHT22;13809;48.632;11.576;2023-07-09T00:46:15;23.60;27.00
26035;DHT22;13809;48.632;11.576;2023-07-09T00:51:22;23.50;27.10
26035;DHT22;13809;48.632;11.576;2023-07-09T00:56:28;23.40;27.10
26035;DHT22;13809;48.632;11.576;2023-07-09T01:01:33;23.40;27.20
26035;DHT22;13809;48.632;11.576;2023-07-09T01:06:41;23.30;27.00
26035;DHT22;13809;48.632;11.576;2023-07-09T01:11:45;23.20;27.50
26035;DHT22;13809;48.632;11.576;2023-07-09T01:16:52;23.00;26.80
26035;DHT22;13809;48.632;11.576;2023-07-09T01:22:01;22.80;27.20
26035;DHT22;13809;48.632;11.576;2023-07-09T01:27:05;22.70;27.50
26035;DHT22;13809;48.632;11.576;2023-07-09T01:32:09;22.60;27.10
26035;DHT22;13809;48.632;11.576;2023-07-09T01:37:16;22.70;27.10
26035;DHT22;13809;48.632;11.576;2023-07-09T01:42:20;22.70;28.00
26035;DHT22;13809;48.632;11.576;2023-07-09T01:47:24;22.60;27.80
26035;DHT22;13809;48.632;11.576;2023-07-09T01:52:30;22.40;27.50
26035;DHT22;13809;48.632;11.576;2023-07-09T01:57:34;22.20;28.20
26035;DHT22;13809;48.632;11.576;2023-07-09T02:02:37;22.10;27.90
26035;DHT22;13809;48.632;11.576;2023-07-09T02:07:47;22.10;28.30
26035;DHT22;13809;48.632;11.576;2023-07-09T02:12:50;22.10;28.70
26035;DHT22;13809;48.632;11.576;2023-07-09T02:17:53;22.10;28.30
26035;DHT22;13809;48.632;11.576;2023-07-09T02:22:58;22.10;28.40
26035;DHT22;13809;48.632;11.576;2023-07-09T02:28:01;22.10;28.80
26035;DHT22;13809;48.632;11.576;2023-07-09T02:33:04;22.10;29.10
26035;DHT22;13809;48.632;11.576;2023-07-09T02:38:09;21.90;28.40
26035;DHT22;13809;48.632;11.576;2023-07-09T02:43:12;21.80;29.20
26035;DHT22;13809;48.632;11.576;2023-07-09T02:48:15;21.60;28.70
26035;DHT22;13809;48.632;11.576;2023-07-09T02:53:21;21.50;29.00
26035;DHT22;13809;48.632;11.576;2023-07-09T02:58:24;21.40;29.80
26035;DHT22;13809;48.632;11.576;2023-07-09T03:03:27;21.40;29.20
26035;DHT22;13809;48.632;11.576;2023-07-09T03:08:32;21.40;29.30
26035;DHT22;13809;48.632;11.576;2023-07-09T03:13:35;21.50;29.80
26035;DHT22;13809;48.632;11.576;2023-07-09T03:18:39;21.50;29.20
26035;DHT22;13809;48.632;11.576;2023-07-09T03:23:44;21.60;29.30
26035;DHT22;13809;48.632;11.576;2023-07-09T03:28:47;21.60;29.70
26035;DHT22;13809;48.632;11.576;2023-07-09T03:33:51;21.60;29.20
26035;DHT22;13809;48.632;11.576;2023-07-09T03:38:56;21.60;29.60
26035;DHT22;13809;48.632;11.576;2023-07-09T03:43:59;21.60;29.80
26035;DHT22;13809;48.632;11.576;2023-07-09T03:49:03;21.40;29.50
26035;DHT22;13809;48.632;11.576;2023-07-09T03:54:07;21.20;29.60
26035;DHT22;13809;48.632;11.576;2023-07-09T03:59:10;21.10;30.00
26035;DHT22;13809;48.632;11.576;2023-07-09T04:04:14;21.10;30.00
26035;DHT22;13809;48.632;11.576;2023-07-09T04:09:19;21.10;30.10
26035;DHT22;13809;48.632;11.576;2023-07-09T04:14:22;21.10;30.60
26035;DHT22;13809;48.632;11.576;2023-07-09T04:19:25;21.00;30.00
26035;DHT22;13809;48.632;11.576;2023-07-09T04:24:30;21.10;30.20
26035;DHT22;13809;48.632;11.576;2023-07-09T04:29:35;21.10;31.00
26035;DHT22;13809;48.632;11.576;2023-07-09T04:34:40;21.20;30.40
26035;DHT22;13809;48.632;11.576;2023-07-09T04:39:45;21.20;30.50
26035;DHT22;13809;48.632;11.576;2023-07-09T04:44:49;21.20;31.00
26035;DHT22;13809;48.632;11.576;2023-07-09T04:49:52;21.30;30.80
26035;DHT22;13809;48.632;11.576;2023-07-09T04:54:56;21.30;30.90
26035;DHT22;13809;48.632;11.576;2023-07-09T05:00:00;21.40;31.40
26035;DHT22;13809;48.632;11.576;2023-07-09T05:05:03;21.40;30.90
26035;DHT22;13809;48.632;11.576;2023-07-09T05:10:09;21.50;31.20
26035;DHT22;13809;48.632;11.576;2023-07-09T05:15:12;21.50;31.80
26035;DHT22;13809;48.632;11.576;2023-07-09T05:20:16;21.60;31.40
26035;DHT22;13809;48.632;11.576;2023-07-09T05:25:20;21.70;31.50
26035;DHT22;13809;48.632;11.576;2023-07-09T05:30:24;21.80;32.00
26035;DHT22;13809;48.632;11.576;2023-07-09T05:35:27;21.90;31.80
26035;DHT22;13809;48.632;11.576;2023-07-09T05:40:32;22.00;31.70
26035;DHT22;13809;48.632;11.576;2023-07-09T05:45:35;22.10;32.10
26035;DHT22;13809;48.632;11.576;2023-07-09T05:50:38;22.30;31.90
26035;DHT22;13809;48.632;11.576;2023-07-09T05:55:43;22.50;32.10
26035;DHT22;13809;48.632;11.576;2023-07-09T06:00:49;22.60;32.30
26035;DHT22;13809;48.632;11.576;2023-07-09T06:05:55;22.80;32.50
26035;DHT22;13809;48.632;11.576;2023-07-09T06:11:02;23.00;31.80
26035;DHT22;13809;48.632;11.576;2023-07-09T06:16:06;23.20;32.20
26035;DHT22;13809;48.632;11.576;2023-07-09T06:21:09;23.40;31.80
26035;DHT22;13809;48.632;11.576;2023-07-09T06:26:16;23.60;31.90
26035;DHT22;13809;48.632;11.576;2023-07-09T06:31:19;23.80;32.10
26035;DHT22;13809;48.632;11.576;2023-07-09T06:36:23;24.00;31.80
26035;DHT22;13809;48.632;11.576;2023-07-09T06:41:27;24.20;31.60
26035;DHT22;13809;48.632;11.576;2023-07-09T06:46:31;24.40;32.10
26035;DHT22;13809;48.632;11.576;2023-07-09T06:51:34;24.60;31.60
26035;DHT22;13809;48.632;11.576;2023-07-09T06:56:39;24.80;31.50
26035;DHT22;13809;48.632;11.576;2023-07-09T07:01:42;25.00;31.60
26035;DHT22;13809;48.632;11.576;2023-07-09T07:06:45;25.20;31.10
26035;DHT22;13809;48.632;11.576;2023-07-09T07:11:53;25.40;31.10
26035;DHT22;13809;48.632;11.576;2023-07-09T07:16:56;25.60;31.20
26035;DHT22;13809;48.632;11.576;2023-07-09T07:22:00;25.80;31.00
26035;DHT22;13809;48.632;11.576;2023-07-09T07:27:05;26.00;30.60
26035;DHT22;13809;48.632;11.576;2023-07-09T07:32:08;26.20;30.30
26035;DHT22;13809;48.632;11.576;2023-07-09T07:37:11;26.40;30.10
26035;DHT22;13809;48.632;11.576;2023-07-09T07:42:16;26.70;30.10
26035;DHT22;13809;48.632;11.576;2023-07-09T07:47:20;27.00;29.70
26035;DHT22;13809;48.632;11.576;2023-07-09T07:52:23;27.20;29.80
26035;DHT22;13809;48.632;11.576;2023-07-09T07:57:28;27.40;29.50
26035;DHT22;13809;48.632;11.576;2023-07-09T08:02:32;27.50;29.50
26035;DHT22;13809;48.632;11.576;2023-07-09T08:07:35;27.70;29.40
26035;DHT22;13809;48.632;11.576;2023-07-09T08:12:39;28.00;29.00
26035;DHT22;13809;48.632;11.576;2023-07-09T08:17:43;28.30;28.30
26035;DHT22;13809;48.632;11.576;2023-07-09T08:22:46;28.60;28.00
26035;DHT22;13809;48.632;11.576;2023-07-09T08:27:51;28.90;27.40
26035;DHT22;13809;48.632;11.576;2023-07-09T08:32:54;29.20;26.80
26035;DHT22;13809;48.632;11.576;2023-07-09T08:37:59;29.40;26.70
26035;DHT22;13809;48.632;11.576;2023-07-09T08:43:11;29.70;26.50
26035;DHT22;13809;48.632;11.576;2023-07-09T08:48:20;30.00;25.80
26035;DHT22;13809;48.632;11.576;2023-07-09T08:53:32;30.30;25.20
26035;DHT22;13809;48.632;11.576;2023-07-09T08:58:38;30.50;25.10
26035;DHT22;13809;48.632;11.576;2023-07-09T09:03:46;30.80;25.00
26035;DHT22;13809;48.632;11.576;2023-07-09T09:09:02;31.10;24.80
26035;DHT22;13809;48.632;11.576;2023-07-09T09:14:27;31.40;24.00
26035;DHT22;13809;48.632;11.576;2023-07-09T09:19:34;31.70;23.40
26035;DHT22;13809;48.632;11.576;2023-07-09T09:24:58;31.90;23.30
26035;DHT22;13809;48.632;11.576;2023-07-09T09:30:05;32.20;22.30
26035;DHT22;13809;48.632;11.576;2023-07-09T09:35:13;32.40;22.30
26035;DHT22;13809;48.632;11.576;2023-07-09T09:40:18;32.60;22.50
26035;DHT22;13809;48.632;11.576;2023-07-09T09:45:28;32.80;22.50
26035;DHT22;13809;48.632;11.576;2023-07-09T09:50:35;33.10;20.80
26035;DHT22;13809;48.632;11.576;2023-07-09T09:55:38;33.30;21.60
26035;DHT22;13809;48.632;11.576;2023-07-09T10:00:49;33.50;20.90
26035;DHT22;13809;48.632;11.576;2023-07-09T10:05:58;33.70;19.60
26035;DHT22;13809;48.632;11.576;2023-07-09T10:11:08;33.90;18.70
26035;DHT22;13809;48.632;11.576;2023-07-09T10:16:24;33.90;17.90
26035;DHT22;13809;48.632;11.576;2023-07-09T10:21:36;34.00;18.30
26035;DHT22;13809;48.632;11.576;2023-07-09T10:26:44;34.00;19.10
26035;DHT22;13809;48.632;11.576;2023-07-09T10:31:54;34.20;18.40
26035;DHT22;13809;48.632;11.576;2023-07-09T10:37:20;34.40;18.20
26035;DHT22;13809;48.632;11.576;2023-07-09T10:42:28;34.60;17.80
26035;DHT22;13809;48.632;11.576;2023-07-09T10:47:36;34.70;17.30
26035;DHT22;13809;48.632;11.576;2023-07-09T10:52:45;34.70;17.20
26035;DHT22;13809;48.632;11.576;2023-07-09T10:57:56;34.70;17.10
26035;DHT22;13809;48.632;11.576;2023-07-09T11:03:05;34.90;15.80
26035;DHT22;13809;48.632;11.576;2023-07-09T11:08:15;35.00;16.10
26035;DHT22;13809;48.632;11.576;2023-07-09T11:13:26;35.10;16.20
26035;DHT22;13809;48.632;11.576;2023-07-09T11:18:55;35.20;15.60
26035;DHT22;13809;48.632;11.576;2023-07-09T11:24:00;35.30;15.20
26035;DHT22;13809;48.632;11.576;2023-07-09T11:29:17;35.40;15.80
26035;DHT22;13809;48.632;11.576;2023-07-09T11:34:28;35.60;15.90
26035;DHT22;13809;48.632;11.576;2023-07-09T11:39:43;35.70;13.90
26035;DHT22;13809;48.632;11.576;2023-07-09T11:44:47;35.70;14.40
26035;DHT22;13809;48.632;11.576;2023-07-09T11:49:56;35.80;15.10
26035;DHT22;13809;48.632;11.576;2023-07-09T11:55:03;35.90;14.20
26035;DHT22;13809;48.632;11.576;2023-07-09T12:00:16;35.90;13.90
26035;DHT22;13809;48.632;11.576;2023-07-09T12:05:26;36.00;14.40
26035;DHT22;13809;48.632;11.576;2023-07-09T12:10:34;36.10;13.70
26035;DHT22;13809;48.632;11.576;2023-07-09T12:15:39;36.10;13.60
26035;DHT22;13809;48.632;11.576;2023-07-09T12:20:51;36.10;13.70
26035;DHT22;13809;48.632;11.576;2023-07-09T12:25:54;36.20;13.70
26035;DHT22;13809;48.632;11.576;2023-07-09T12:30:58;36.10;13.70
26035;DHT22;13809;48.632;11.576;2023-07-09T12:36:05;36.10;13.70
26035;DHT22;13809;48.632;11.576;2023-07-09T12:41:18;36.10;13.00
26035;DHT22;13809;48.632;11.576;2023-07-09T12:46:22;36.00;12.50
26035;DHT22;13809;48.632;11.576;2023-07-09T12:51:29;36.00;13.60
26035;DHT22;13809;48.632;11.576;2023-07-09T12:56:34;36.10;12.40
26035;DHT22;13809;48.632;11.576;2023-07-09T13:01:38;36.10;12.90
26035;DHT22;13809;48.632;11.576;2023-07-09T13:06:44;36.20;13.00
26035;DHT22;13809;48.632;11.576;2023-07-09T13:11:48;36.20;11.50
26035;DHT22;13809;48.632;11.576;2023-07-09T13:16:51;36.20;12.40
26035;DHT22;13809;48.632;11.576;2023-07-09T13:21:56;36.30;12.40
26035;DHT22;13809;48.632;11.576;2023-07-09T13:27:00;36.40;11.80
26035;DHT22;13809;48.632;11.576;2023-07-09T13:32:08;36.50;11.90
26035;DHT22;13809;48.632;11.576;2023-07-09T13:37:15;36.60;11.10
26035;DHT22;13809;48.632;11.576;2023-07-09T13:42:18;36.60;11.10
26035;DHT22;13809;48.632;11.576;2023-07-09T13:47:21;36.70;11.40
26035;DHT22;13809;48.632;11.576;2023-07-09T13:52:26;36.70;11.40
26035;DHT22;13809;48.632;11.576;2023-07-09T13:57:29;36.70;11.00
26035;DHT22;13809;48.632;11.576;2023-07-09T14:02:33;36.70;11.30
26035;DHT22;13809;48.632;11.576;2023-07-09T14:07:40;36.80;11.30
26035;DHT22;13809;48.632;11.576;2023-07-09T14:12:46;36.70;10.50
26035;DHT22;13809;48.632;11.576;2023-07-09T14:17:50;36.70;10.30
26035;DHT22;13809;48.632;11.576;2023-07-09T14:22:55;36.70;11.00
26035;DHT22;13809;48.632;11.576;2023-07-09T14:27:58;36.60;10.70
26035;DHT22;13809;48.632;11.576;2023-07-09T14:33:01;36.60;10.70
26035;DHT22;13809;48.632;11.576;2023-07-09T14:38:15;36.60;10.60
26035;DHT22;13809;48.632;11.576;2023-07-09T14:43:19;36.60;10.40
26035;DHT22;13809;48.632;11.576;2023-07-09T14:48:23;36.70;10.80
26035;DHT22;13809;48.632;11.576;2023-07-09T14:53:27;36.70;10.80
26035;DHT22;13809;48.632;11.576;2023-07-09T14:58:31;36.80;10.40
26035;DHT22;13809;48.632;11.576;2023-07-09T15:03:34;36.90;10.30
26035;DHT22;13809;48.632;11.576;2023-07-09T15:08:39;36.90;10.40
26035;DHT22;13809;48.632;11.576;2023-07-09T15:13:42;37.00;10.20
26035;DHT22;13809;48.632;11.576;2023-07-09T15:18:45;37.00;10.20
26035;DHT22;13809;48.632;11.576;2023-07-09T15:23:50;37.00;10.20
26035;DHT22;13809;48.632;11.576;2023-07-09T15:28:53;37.00;9.80
26035;DHT22;13809;48.632;11.576;2023-07-09T15:33:56;37.00;10.00
26035;DHT22;13809;48.632;11.576;2023-07-09T15:39:01;37.00;10.00
26035;DHT22;13809;48.632;11.576;2023-07-09T15:44:04;37.00;9.80
26035;DHT22;13809;48.632;11.576;2023-07-09T15:49:11;37.10;10.20
26035;DHT22;13809;48.632;11.576;2023-07-09T15:54:17;37.10;9.20
26035;DHT22;13809;48.632;11.576;2023-07-09T15:59:27;37.00;8.90
26035;DHT22;13809;48.632;11.576;2023-07-09T16:04:30;36.90;8.70
26035;DHT22;13809;48.632;11.576;2023-07-09T16:09:37;36.80;9.50
26035;DHT22;13809;48.632;11.576;2023-07-09T16:14:41;36.70;9.20
26035;DHT22;13809;48.632;11.576;2023-07-09T16:19:44;36.70;9.50
26035;DHT22;13809;48.632;11.576;2023-07-09T16:24:49;36.70;9.30
26035;DHT22;13809;48.632;11.576;2023-07-09T16:29:52;36.60;9.00
26035;DHT22;13809;48.632;11.576;2023-07-09T16:34:55;36.50;9.30
26035;DHT22;13809;48.632;11.576;2023-07-09T16:39:59;36.50;9.50
26035;DHT22;13809;48.632;11.576;2023-07-09T16:45:03;36.50;9.50
26035;DHT22;13809;48.632;11.576;2023-07-09T16:50:12;36.50;9.70
26035;DHT22;13809;48.632;11.576;2023-07-09T16:55:23;36.40;9.50
26035;DHT22;13809;48.632;11.576;2023-07-09T17:00:29;36.40;9.90
26035;DHT22;13809;48.632;11.576;2023-07-09T17:05:34;36.40;10.00
26035;DHT22;13809;48.632;11.576;2023-07-09T17:10:40;36.30;10.10
26035;DHT22;13809;48.632;11.576;2023-07-09T17:15:45;36.20;10.20
26035;DHT22;13809;48.632;11.576;2023-07-09T17:20:50;36.00;10.60
26035;DHT22;13809;48.632;11.576;2023-07-09T17:25:55;35.90;10.60
26035;DHT22;13809;48.632;11.576;2023-07-09T17:30:59;35.70;10.20
26035;DHT22;13809;48.632;11.576;2023-07-09T17:36:04;35.70;12.10
26035;DHT22;13809;48.632;11.576;2023-07-09T17:41:13;35.70;12.00
26035;DHT22;13809;48.632;11.576;2023-07-09T17:46:20;35.70;11.80
26035;DHT22;13809;48.632;11.576;2023-07-09T17:51:23;35.70;12.00
26035;DHT22;13809;48.632;11.576;2023-07-09T17:56:28;35.70;12.10
26035;DHT22;13809;48.632;11.576;2023-07-09T18:01:31;35.70;13.40
26035;DHT22;13809;48.632;11.576;2023-07-09T18:06:34;35.70;13.60
26035;DHT22;13809;48.632;11.576;2023-07-09T18:11:39;35.60;13.80
26035;DHT22;13809;48.632;11.576;2023-07-09T18:16:42;35.60;14.00
26035;DHT22;13809;48.632;11.576;2023-07-09T18:21:46;35.50;13.90
26035;DHT22;13809;48.632;11.576;2023-07-09T18:26:51;35.40;14.90
26035;DHT22;13809;48.632;11.576;2023-07-09T18:31:54;35.30;14.50
26035;DHT22;13809;48.632;11.576;2023-07-09T18:37:01;35.20;14.20
26035;DHT22;13809;48.632;11.576;2023-07-09T18:42:12;35.10;14.60
26035;DHT22;13809;48.632;11.576;2023-07-09T18:47:18;34.90;15.60
26035;DHT22;13809;48.632;11.576;2023-07-09T18:52:22;34.90;15.40
26035;DHT22;13809;48.632;11.576;2023-07-09T18:57:27;34.70;15.20
26035;DHT22;13809;48.632;11.576;2023-07-09T19:02:31;34.60;15.80
26035;DHT22;13809;48.632;11.576;2023-07-09T19:07:34;34.50;15.50
26035;DHT22;13809;48.632;11.576;2023-07-09T19:12:39;34.30;15.40
26035;DHT22;13809;48.632;11.576;2023-07-09T19:17:43;34.20;16.40
26035;DHT22;13809;48.632;11.576;2023-07-09T19:22:48;34.10;16.00
26035;DHT22;13809;48.632;11.576;2023-07-09T19:27:53;33.90;16.10
26035;DHT22;13809;48.632;11.576;2023-07-09T19:32:58;33.70;16.60
26035;DHT22;13809;48.632;11.576;2023-07-09T19:38:01;33.60;16.80
26035;DHT22;13809;48.632;11.576;2023-07-09T19:43:06;33.50;16.70
26035;DHT22;13809;48.632;11.576;2023-07-09T19:48:13;33.30;16.90
26035;DHT22;13809;48.632;11.576;2023-07-09T19:53:22;33.20;17.90
26035;DHT22;13809;48.632;11.576;2023-07-09T19:58:30;32.90;17.10
26035;DHT22;13809;48.632;11.576;2023-07-09T20:03:35;32.60;17.20
26035;DHT22;13809;48.632;11.576;2023-07-09T20:08:38;32.20;17.50
26035;DHT22;13809;48.632;11.576;2023-07-09T20:13:43;31.70;17.70
26035;DHT22;13809;48.632;11.576;2023-07-09T20:18:46;31.40;18.70
26035;DHT22;13809;48.632;11.576;2023-07-09T20:23:49;31.10;18.70
26035;DHT22;13809;48.632;11.576;2023-07-09T20:28:54;30.90;18.90
26035;DHT22;13809;48.632;11.576;2023-07-09T20:34:00;30.50;19.40
26035;DHT22;13809;48.632;11.576;2023-07-09T20:39:11;30.20;19.80
26035;DHT22;13809;48.632;11.576;2023-07-09T20:44:20;30.00;20.40
26035;DHT22;13809;48.632;11.576;2023-07-09T20:49:26;29.90;20.80
26035;DHT22;13809;48.632;11.576;2023-07-09T20:54:30;29.70;20.70
26035;DHT22;13809;48.632;11.576;2023-07-09T20:59:34;29.40;20.50
26035;DHT22;13809;48.632;11.576;2023-07-09T21:04:37;29.10;20.90
26035;DHT22;13809;48.632;11.576;2023-07-09T21:09:41;28.70;20.90
26035;DHT22;13809;48.632;11.576;2023-07-09T21:14:45;28.40;21.40
26035;DHT22;13809;48.632;11.576;2023-07-09T21:19:50;28.20;22.30
26035;DHT22;13809;48.632;11.576;2023-07-09T21:24:56;28.20;22.20
26035;DHT22;13809;48.632;11.576;2023-07-09T21:30:02;28.20;23.00
26035;DHT22;13809;48.632;11.576;2023-07-09T21:35:15;28.30;23.80
26035;DHT22;13809;48.632;11.576;2023-07-09T21:40:26;28.30;23.70
26035;DHT22;13809;48.632;11.576;2023-07-09T21:45:35;28.30;23.30
26035;DHT22;13809;48.632;11.576;2023-07-09T21:50:39;28.30;23.60
26035;DHT22;13809;48.632;11.576;2023-07-09T21:55:42;28.30;22.80
26035;DHT22;13809;48.632;11.576;2023-07-09T22:00:48;28.30;22.80
26035;DHT22;13809;48.632;11.576;2023-07-09T22:05:57;28.30;23.90
26035;DHT22;13809;48.632;11.576;2023-07-09T22:11:00;28.20;23.10
26035;DHT22;13809;48.632;11.576;2023-07-09T22:16:05;28.00;23.20
26035;DHT22;13809;48.632;11.576;2023-07-09T22:21:10;27.90;23.80
26035;DHT22;13809;48.632;11.576;2023-07-09T22:26:14;27.80;23.50
26035;DHT22;13809;48.632;11.576;2023-07-09T22:31:20;27.80;23.40
26035;DHT22;13809;48.632;11.576;2023-07-09T22:36:23;27.70;23.80
26035;DHT22;13809;48.632;11.576;2023-07-09T22:41:26;27.70;23.50
26035;DHT22;13809;48.632;11.576;2023-07-09T22:46:37;27.60;23.60
26035;DHT22;13809;48.632;11.576;2023-07-09T22:51:41;27.50;24.70
26035;DHT22;13809;48.632;11.576;2023-07-09T22:56:44;27.50;24.10
26035;DHT22;13809;48.632;11.576;2023-07-09T23:01:49;27.40;24.20
26035;DHT22;13809;48.632;11.576;2023-07-09T23:06:52;27.30;24.80
26035;DHT22;13809;48.632;11.576;2023-07-09T23:11:56;27.20;24.20
26035;DHT22;13809;48.632;11.576;2023-07-09T23:17:00;27.20;24.50
26035;DHT22;13809;48.632;11.576;2023-07-09T23:22:04;27.10;24.90
26035;DHT22;13809;48.632;11.576;2023-07-09T23:27:13;27.00;24.60
26035;DHT22;13809;48.632;11.576;2023-07-09T23:32:19;26.90;25.40
26035;DHT22;13809;48.632;11.576;2023-07-09T23:37:24;26.80;25.00
26035;DHT22;13809;48.632;11.576;2023-07-09T23:42:27;26.70;24.80
26035;DHT22;13809;48.632;11.576;2023-07-09T23:47:32;26.60;24.90
26035;DHT22;13809;48.632;11.576;2023-07-09T23:52:35;26.60;25.30
26035;DHT22;13809;48.632;11.576;2023-07-09T23:57:40;26.50;25.10
